CSN7701 ZGGG-ZJHK
Flight info
| Callsign | CSN7701 |
|---|---|
| Flight time | 0h 58m |
| Altitude | 27600 |
| Route | VIBOS9 VIBOS R473 ZUH/K0800S0780 R200 BIGRO G221 GIVIV W605 DOMGO DOMGO6XA |
| Aircraft | A321/M-SDE3FGHIRWY/LB1 |
Departure
| Time | 2026-04-27 01:23 |
|---|---|
| Airport | Guangzhou Baiyun International Airport (ZGGG) |
Arrival
| Time | 2026-04-27 02:22 |
|---|---|
| Airport | Haikou Meilan International Airport (ZJHK) |
| Time | Latitude | Longitude | Altitude | Speed | Heading |
|---|---|---|---|---|---|
| 2026-04-27 01:23 | 23.62974 | 113.34897 | 8811 ft | 279 kts | 303° |
| 2026-04-27 01:23 | 23.63714 | 113.32938 | 9240 ft | 285 kts | 276° |
| 2026-04-27 01:23 | 23.63987 | 113.30781 | 9898 ft | 290 kts | 275° |
| 2026-04-27 01:24 | 23.64272 | 113.28560 | 10274 ft | 306 kts | 275° |
| 2026-04-27 01:24 | 23.64582 | 113.26175 | 10425 ft | 329 kts | 276° |
| 2026-04-27 01:24 | 23.64920 | 113.23627 | 10611 ft | 348 kts | 276° |
| 2026-04-27 01:24 | 23.65279 | 113.20984 | 11112 ft | 355 kts | 276° |
| 2026-04-27 01:25 | 23.65389 | 113.18296 | 11710 ft | 356 kts | 262° |
| 2026-04-27 01:25 | 23.64799 | 113.15685 | 12336 ft | 356 kts | 245° |
| 2026-04-27 01:25 | 23.63530 | 113.13379 | 12972 ft | 357 kts | 229° |
| 2026-04-27 01:25 | 23.61776 | 113.11461 | 13629 ft | 359 kts | 223° |
| 2026-04-27 01:26 | 23.59783 | 113.09743 | 14240 ft | 362 kts | 212° |
| 2026-04-27 01:26 | 23.57539 | 113.08571 | 14815 ft | 365 kts | 200° |
| 2026-04-27 01:26 | 23.55013 | 113.07955 | 15402 ft | 371 kts | 187° |
| 2026-04-27 01:26 | 23.52415 | 113.07896 | 15953 ft | 376 kts | 182° |
| 2026-04-27 01:27 | 23.49793 | 113.07919 | 16502 ft | 379 kts | 182° |
| 2026-04-27 01:27 | 23.47138 | 113.07942 | 17042 ft | 383 kts | 182° |
| 2026-04-27 01:27 | 23.44496 | 113.07959 | 17569 ft | 387 kts | 182° |
| 2026-04-27 01:27 | 23.41755 | 113.07974 | 18101 ft | 390 kts | 183° |
| 2026-04-27 01:28 | 23.39029 | 113.07988 | 18566 ft | 394 kts | 183° |
| 2026-04-27 01:28 | 23.36275 | 113.08001 | 19002 ft | 397 kts | 183° |
| 2026-04-27 01:28 | 23.33499 | 113.08014 | 19439 ft | 401 kts | 183° |
| 2026-04-27 01:28 | 23.30700 | 113.08031 | 19876 ft | 404 kts | 183° |
| 2026-04-27 01:29 | 23.27878 | 113.08116 | 20306 ft | 409 kts | 178° |
| 2026-04-27 01:29 | 23.25059 | 113.08688 | 20725 ft | 417 kts | 167° |
| 2026-04-27 01:29 | 23.22321 | 113.09802 | 21143 ft | 423 kts | 161° |
| 2026-04-27 01:29 | 23.19599 | 113.11054 | 21566 ft | 426 kts | 161° |
| 2026-04-27 01:30 | 23.16853 | 113.12313 | 21988 ft | 429 kts | 161° |
| 2026-04-27 01:30 | 23.14090 | 113.13573 | 22401 ft | 432 kts | 161° |
| 2026-04-27 01:30 | 23.11305 | 113.14837 | 22806 ft | 435 kts | 161° |
| 2026-04-27 01:30 | 23.08542 | 113.16090 | 23203 ft | 438 kts | 161° |
| 2026-04-27 01:31 | 23.05678 | 113.17392 | 23600 ft | 441 kts | 161° |
| 2026-04-27 01:31 | 23.02836 | 113.18685 | 23943 ft | 444 kts | 161° |
| 2026-04-27 01:31 | 22.99961 | 113.19899 | 24284 ft | 444 kts | 164° |
| 2026-04-27 01:31 | 22.97032 | 113.20989 | 24634 ft | 445 kts | 166° |
| 2026-04-27 01:32 | 22.94067 | 113.21992 | 24984 ft | 447 kts | 167° |
| 2026-04-27 01:32 | 22.91083 | 113.22958 | 25332 ft | 449 kts | 167° |
| 2026-04-27 01:32 | 22.88085 | 113.23928 | 25685 ft | 451 kts | 167° |
| 2026-04-27 01:32 | 22.85072 | 113.24922 | 26024 ft | 453 kts | 167° |
| 2026-04-27 01:33 | 22.82014 | 113.25956 | 26362 ft | 456 kts | 166° |
| 2026-04-27 01:33 | 22.78982 | 113.27006 | 26694 ft | 459 kts | 166° |
| 2026-04-27 01:33 | 22.75935 | 113.28073 | 27017 ft | 461 kts | 166° |
| 2026-04-27 01:33 | 22.72875 | 113.29147 | 27329 ft | 464 kts | 166° |
| 2026-04-27 01:34 | 22.69793 | 113.30227 | 27551 ft | 466 kts | 166° |
| 2026-04-27 01:34 | 22.66732 | 113.31296 | 27598 ft | 460 kts | 166° |
| 2026-04-27 01:34 | 22.63700 | 113.32348 | 27600 ft | 457 kts | 166° |
| 2026-04-27 01:34 | 22.60674 | 113.33395 | 27598 ft | 456 kts | 166° |
| 2026-04-27 01:35 | 22.57654 | 113.34439 | 27601 ft | 456 kts | 167° |
| 2026-04-27 01:35 | 22.54631 | 113.35482 | 27601 ft | 456 kts | 167° |
| 2026-04-27 01:35 | 22.51609 | 113.36524 | 27602 ft | 456 kts | 167° |
| 2026-04-27 01:35 | 22.48583 | 113.37567 | 27601 ft | 456 kts | 167° |
| 2026-04-27 01:36 | 22.45559 | 113.38608 | 27600 ft | 456 kts | 167° |
| 2026-04-27 01:36 | 22.42533 | 113.39651 | 27601 ft | 457 kts | 167° |
| 2026-04-27 01:36 | 22.39730 | 113.40615 | 27601 ft | 457 kts | 167° |
| 2026-04-27 01:36 | 22.36712 | 113.41653 | 27601 ft | 457 kts | 167° |
| 2026-04-27 01:37 | 22.33687 | 113.42695 | 27599 ft | 457 kts | 167° |
| 2026-04-27 01:37 | 22.30644 | 113.43627 | 27594 ft | 452 kts | 175° |
| 2026-04-27 01:37 | 22.27547 | 113.43770 | 27592 ft | 441 kts | 191° |
| 2026-04-27 01:37 | 22.24607 | 113.43002 | 27586 ft | 431 kts | 206° |
| 2026-04-27 01:38 | 22.22027 | 113.41437 | 27586 ft | 423 kts | 221° |
| 2026-04-27 01:38 | 22.19939 | 113.39245 | 27580 ft | 417 kts | 235° |
| 2026-04-27 01:38 | 22.18446 | 113.36593 | 27578 ft | 413 kts | 248° |
| 2026-04-27 01:38 | 22.17354 | 113.33688 | 27576 ft | 413 kts | 250° |
| 2026-04-27 01:39 | 22.16289 | 113.30813 | 27574 ft | 413 kts | 250° |
| 2026-04-27 01:39 | 22.15221 | 113.27933 | 27575 ft | 413 kts | 250° |
| 2026-04-27 01:39 | 22.14155 | 113.25052 | 27581 ft | 414 kts | 250° |
| 2026-04-27 01:39 | 22.13070 | 113.22183 | 27580 ft | 414 kts | 249° |
| 2026-04-27 01:40 | 22.11920 | 113.19330 | 27578 ft | 414 kts | 248° |
| 2026-04-27 01:40 | 22.10732 | 113.16498 | 27579 ft | 415 kts | 247° |
| 2026-04-27 01:40 | 22.09527 | 113.13675 | 27580 ft | 415 kts | 247° |
| 2026-04-27 01:40 | 22.08319 | 113.10851 | 27581 ft | 415 kts | 247° |
| 2026-04-27 01:41 | 22.07120 | 113.08022 | 27583 ft | 415 kts | 247° |
| 2026-04-27 01:41 | 22.05931 | 113.05191 | 27582 ft | 415 kts | 247° |
| 2026-04-27 01:41 | 22.04746 | 113.02354 | 27583 ft | 415 kts | 248° |
| 2026-04-27 01:41 | 22.03567 | 112.99522 | 27583 ft | 414 kts | 248° |
| 2026-04-27 01:42 | 22.02418 | 112.96673 | 27581 ft | 414 kts | 249° |
| 2026-04-27 01:42 | 22.01303 | 112.93813 | 27584 ft | 414 kts | 249° |
| 2026-04-27 01:42 | 22.00204 | 112.90947 | 27582 ft | 414 kts | 249° |
| 2026-04-27 01:42 | 21.99105 | 112.88078 | 27583 ft | 414 kts | 249° |
| 2026-04-27 01:43 | 21.98000 | 112.85207 | 27585 ft | 414 kts | 249° |
| 2026-04-27 01:43 | 21.96892 | 112.82345 | 27581 ft | 414 kts | 249° |
| 2026-04-27 01:43 | 21.95772 | 112.79491 | 27581 ft | 414 kts | 248° |
| 2026-04-27 01:43 | 21.94630 | 112.76641 | 27584 ft | 414 kts | 248° |
| 2026-04-27 01:44 | 21.93478 | 112.73799 | 27581 ft | 414 kts | 248° |
| 2026-04-27 01:44 | 21.92319 | 112.70958 | 27581 ft | 414 kts | 248° |
| 2026-04-27 01:44 | 21.91160 | 112.68115 | 27581 ft | 414 kts | 248° |
| 2026-04-27 01:44 | 21.90008 | 112.65272 | 27580 ft | 415 kts | 248° |
| 2026-04-27 01:45 | 21.88856 | 112.62424 | 27580 ft | 415 kts | 248° |
| 2026-04-27 01:45 | 21.87690 | 112.59541 | 27581 ft | 414 kts | 248° |
| 2026-04-27 01:45 | 21.86538 | 112.56695 | 27583 ft | 415 kts | 248° |
| 2026-04-27 01:45 | 21.85386 | 112.53851 | 27583 ft | 415 kts | 248° |
| 2026-04-27 01:46 | 21.84245 | 112.51000 | 27582 ft | 414 kts | 248° |
| 2026-04-27 01:46 | 21.83497 | 112.49114 | 27582 ft | 414 kts | 249° |
| 2026-04-27 01:46 | 21.81994 | 112.45296 | 27584 ft | 414 kts | 249° |
| 2026-04-27 01:46 | 21.81248 | 112.43405 | 27584 ft | 414 kts | 249° |
| 2026-04-27 01:47 | 21.79738 | 112.39587 | 27586 ft | 414 kts | 248° |
| 2026-04-27 01:47 | 21.78988 | 112.37698 | 27585 ft | 414 kts | 248° |
| 2026-04-27 01:47 | 21.77856 | 112.34847 | 27585 ft | 414 kts | 249° |
| 2026-04-27 01:47 | 21.76725 | 112.31996 | 27582 ft | 414 kts | 248° |
| 2026-04-27 01:48 | 21.75590 | 112.29147 | 27582 ft | 414 kts | 248° |
| 2026-04-27 01:48 | 21.74451 | 112.26297 | 27580 ft | 414 kts | 248° |
| 2026-04-27 01:48 | 21.73317 | 112.23451 | 27580 ft | 414 kts | 248° |
| 2026-04-27 01:48 | 21.72183 | 112.20600 | 27582 ft | 414 kts | 248° |
| 2026-04-27 01:49 | 21.71050 | 112.17753 | 27582 ft | 414 kts | 248° |
| 2026-04-27 01:49 | 21.69915 | 112.14909 | 27578 ft | 414 kts | 248° |
| 2026-04-27 01:49 | 21.68779 | 112.12058 | 27583 ft | 414 kts | 248° |
| 2026-04-27 01:49 | 21.67644 | 112.09214 | 27585 ft | 414 kts | 248° |
| 2026-04-27 01:50 | 21.66505 | 112.06365 | 27587 ft | 414 kts | 248° |
| 2026-04-27 01:50 | 21.65366 | 112.03521 | 27588 ft | 414 kts | 248° |
| 2026-04-27 01:50 | 21.64228 | 112.00682 | 27589 ft | 414 kts | 248° |
| 2026-04-27 01:50 | 21.63075 | 111.97804 | 27591 ft | 414 kts | 248° |
| 2026-04-27 01:51 | 21.61936 | 111.94960 | 27585 ft | 414 kts | 248° |
| 2026-04-27 01:51 | 21.60799 | 111.92123 | 27588 ft | 414 kts | 248° |
| 2026-04-27 01:51 | 21.59661 | 111.89283 | 27595 ft | 413 kts | 248° |
| 2026-04-27 01:51 | 21.58523 | 111.86448 | 27593 ft | 413 kts | 248° |
| 2026-04-27 01:52 | 21.57322 | 111.83641 | 27596 ft | 414 kts | 243° |
| 2026-04-27 01:52 | 21.55726 | 111.81060 | 27590 ft | 417 kts | 233° |
| 2026-04-27 01:52 | 21.53840 | 111.78690 | 27600 ft | 417 kts | 232° |
| 2026-04-27 01:52 | 21.51951 | 111.76325 | 27598 ft | 417 kts | 232° |
| 2026-04-27 01:53 | 21.50067 | 111.73954 | 27593 ft | 417 kts | 232° |
| 2026-04-27 01:53 | 21.48187 | 111.71583 | 27589 ft | 417 kts | 232° |
| 2026-04-27 01:53 | 21.46311 | 111.69214 | 27596 ft | 417 kts | 233° |
| 2026-04-27 01:53 | 21.44435 | 111.66846 | 27595 ft | 416 kts | 232° |
| 2026-04-27 01:54 | 21.42555 | 111.64481 | 27590 ft | 416 kts | 232° |
| 2026-04-27 01:54 | 21.40674 | 111.62120 | 27595 ft | 416 kts | 232° |
| 2026-04-27 01:54 | 21.38789 | 111.59759 | 27591 ft | 416 kts | 232° |
| 2026-04-27 01:54 | 21.36911 | 111.57405 | 27591 ft | 416 kts | 232° |
| 2026-04-27 01:55 | 21.35032 | 111.55048 | 27588 ft | 416 kts | 233° |
| 2026-04-27 01:55 | 21.33154 | 111.52691 | 27597 ft | 415 kts | 233° |
| 2026-04-27 01:55 | 21.31276 | 111.50337 | 27588 ft | 415 kts | 233° |
| 2026-04-27 01:55 | 21.29398 | 111.47982 | 27589 ft | 415 kts | 233° |
| 2026-04-27 01:56 | 21.25651 | 111.43281 | 27594 ft | 415 kts | 233° |
| 2026-04-27 01:56 | 21.23776 | 111.40930 | 27592 ft | 414 kts | 233° |
| 2026-04-27 01:56 | 21.21902 | 111.38586 | 27587 ft | 414 kts | 233° |
| 2026-04-27 01:57 | 21.20026 | 111.36246 | 27590 ft | 414 kts | 233° |
| 2026-04-27 01:57 | 21.18146 | 111.33905 | 27591 ft | 414 kts | 233° |
| 2026-04-27 01:57 | 21.16269 | 111.31567 | 27589 ft | 414 kts | 233° |
| 2026-04-27 01:57 | 21.14395 | 111.29226 | 27588 ft | 414 kts | 233° |
| 2026-04-27 01:58 | 21.12522 | 111.26885 | 27590 ft | 414 kts | 233° |
| 2026-04-27 01:58 | 21.10648 | 111.24545 | 27586 ft | 414 kts | 233° |
| 2026-04-27 01:58 | 21.08778 | 111.22210 | 27584 ft | 414 kts | 233° |
| 2026-04-27 01:58 | 21.06902 | 111.19872 | 27584 ft | 414 kts | 233° |
| 2026-04-27 01:59 | 21.05028 | 111.17535 | 27574 ft | 414 kts | 233° |
| 2026-04-27 01:59 | 21.03157 | 111.15197 | 27574 ft | 413 kts | 233° |
| 2026-04-27 01:59 | 21.01261 | 111.12830 | 27578 ft | 413 kts | 233° |
| 2026-04-27 01:59 | 20.99390 | 111.10496 | 27579 ft | 413 kts | 233° |
| 2026-04-27 02:00 | 20.97509 | 111.08164 | 27569 ft | 414 kts | 231° |
| 2026-04-27 02:00 | 20.95397 | 111.06051 | 27568 ft | 419 kts | 221° |
| 2026-04-27 02:00 | 20.92930 | 111.04363 | 27570 ft | 425 kts | 212° |
| 2026-04-27 02:00 | 20.90229 | 111.03053 | 27571 ft | 427 kts | 208° |
| 2026-04-27 02:01 | 20.87507 | 111.01774 | 27573 ft | 427 kts | 208° |
| 2026-04-27 02:01 | 20.84788 | 111.00495 | 27574 ft | 427 kts | 208° |
| 2026-04-27 02:01 | 20.82072 | 110.99214 | 27575 ft | 427 kts | 209° |
| 2026-04-27 02:01 | 20.79358 | 110.97927 | 27573 ft | 427 kts | 209° |
| 2026-04-27 02:02 | 20.76644 | 110.96634 | 27575 ft | 427 kts | 209° |
| 2026-04-27 02:02 | 20.73931 | 110.95343 | 27573 ft | 427 kts | 209° |
| 2026-04-27 02:02 | 20.71216 | 110.94056 | 27573 ft | 427 kts | 209° |
| 2026-04-27 02:02 | 20.68502 | 110.92771 | 27570 ft | 427 kts | 209° |
| 2026-04-27 02:03 | 20.65783 | 110.91482 | 27570 ft | 427 kts | 209° |
| 2026-04-27 02:03 | 20.63069 | 110.90196 | 27569 ft | 427 kts | 209° |
| 2026-04-27 02:03 | 20.60356 | 110.88909 | 27566 ft | 427 kts | 209° |
| 2026-04-27 02:03 | 20.57617 | 110.87607 | 27574 ft | 434 kts | 208° |
| 2026-04-27 02:04 | 20.54851 | 110.86293 | 27575 ft | 437 kts | 208° |
| 2026-04-27 02:04 | 20.52067 | 110.84976 | 27573 ft | 438 kts | 207° |
| 2026-04-27 02:04 | 20.49138 | 110.84011 | 27568 ft | 446 kts | 195° |
| 2026-04-27 02:04 | 20.46031 | 110.83658 | 27581 ft | 451 kts | 189° |
| 2026-04-27 02:05 | 20.42895 | 110.83422 | 27566 ft | 451 kts | 189° |
| 2026-04-27 02:05 | 20.39760 | 110.83188 | 27562 ft | 452 kts | 189° |
| 2026-04-27 02:05 | 20.36631 | 110.82952 | 27561 ft | 452 kts | 189° |
| 2026-04-27 02:05 | 20.33495 | 110.82713 | 27541 ft | 450 kts | 189° |
| 2026-04-27 02:06 | 20.30399 | 110.82478 | 26616 ft | 439 kts | 189° |
| 2026-04-27 02:06 | 20.27362 | 110.82252 | 25667 ft | 425 kts | 188° |
| 2026-04-27 02:06 | 20.24460 | 110.82031 | 24754 ft | 411 kts | 189° |
| 2026-04-27 02:06 | 20.21740 | 110.81418 | 23870 ft | 391 kts | 206° |
| 2026-04-27 02:07 | 20.19683 | 110.80154 | 23001 ft | 376 kts | 222° |
| 2026-04-27 02:07 | 20.17958 | 110.78145 | 21983 ft | 363 kts | 239° |
| 2026-04-27 02:07 | 20.16924 | 110.75741 | 20992 ft | 355 kts | 255° |
| 2026-04-27 02:07 | 20.16388 | 110.73200 | 20027 ft | 349 kts | 258° |
| 2026-04-27 02:08 | 20.15878 | 110.70692 | 19111 ft | 345 kts | 257° |
| 2026-04-27 02:08 | 20.15363 | 110.68215 | 18205 ft | 341 kts | 257° |
| 2026-04-27 02:08 | 20.14847 | 110.65762 | 17184 ft | 338 kts | 257° |
| 2026-04-27 02:08 | 20.14346 | 110.63329 | 16186 ft | 335 kts | 258° |
| 2026-04-27 02:09 | 20.13860 | 110.60915 | 15222 ft | 332 kts | 258° |
| 2026-04-27 02:09 | 20.13382 | 110.58517 | 14285 ft | 330 kts | 258° |
| 2026-04-27 02:09 | 20.12908 | 110.56137 | 13330 ft | 328 kts | 258° |
| 2026-04-27 02:09 | 20.12436 | 110.53773 | 12315 ft | 325 kts | 258° |
| 2026-04-27 02:10 | 20.11966 | 110.51430 | 11344 ft | 322 kts | 257° |
| 2026-04-27 02:10 | 20.11501 | 110.49109 | 10396 ft | 319 kts | 257° |
| 2026-04-27 02:10 | 20.11038 | 110.46808 | 9442 ft | 317 kts | 257° |
| 2026-04-27 02:10 | 20.10578 | 110.44530 | 8430 ft | 314 kts | 257° |
| 2026-04-27 02:11 | 20.10122 | 110.42271 | 7458 ft | 311 kts | 256° |
| 2026-04-27 02:11 | 20.09671 | 110.40033 | 6511 ft | 308 kts | 257° |
| 2026-04-27 02:11 | 20.09225 | 110.37817 | 5699 ft | 301 kts | 256° |
| 2026-04-27 02:11 | 20.08801 | 110.35723 | 5581 ft | 283 kts | 256° |
| 2026-04-27 02:12 | 20.08392 | 110.33717 | 5450 ft | 272 kts | 255° |
| 2026-04-27 02:12 | 20.07998 | 110.31794 | 5327 ft | 260 kts | 255° |
| 2026-04-27 02:12 | 20.07621 | 110.29954 | 5204 ft | 249 kts | 255° |
| 2026-04-27 02:12 | 20.07259 | 110.28187 | 5083 ft | 240 kts | 255° |
| 2026-04-27 02:13 | 20.06909 | 110.26486 | 4966 ft | 231 kts | 255° |
| 2026-04-27 02:13 | 20.06569 | 110.24848 | 4843 ft | 223 kts | 255° |
| 2026-04-27 02:13 | 20.06240 | 110.23258 | 4724 ft | 218 kts | 255° |
| 2026-04-27 02:13 | 20.05893 | 110.21594 | 4614 ft | 245 kts | 255° |
| 2026-04-27 02:14 | 20.05515 | 110.19788 | 4480 ft | 253 kts | 255° |
| 2026-04-27 02:14 | 20.05137 | 110.17959 | 4364 ft | 253 kts | 255° |
| 2026-04-27 02:14 | 20.04699 | 110.16152 | 4233 ft | 251 kts | 244° |
| 2026-04-27 02:14 | 20.03691 | 110.14683 | 4113 ft | 245 kts | 217° |
| 2026-04-27 02:15 | 20.02189 | 110.13884 | 3987 ft | 242 kts | 191° |
| 2026-04-27 02:15 | 20.00514 | 110.13789 | 3863 ft | 242 kts | 179° |
| 2026-04-27 02:15 | 19.98854 | 110.13981 | 3738 ft | 240 kts | 164° |
| 2026-04-27 02:15 | 19.97350 | 110.14726 | 3627 ft | 240 kts | 146° |
| 2026-04-27 02:16 | 19.96163 | 110.15966 | 3491 ft | 239 kts | 126° |
| 2026-04-27 02:16 | 19.95451 | 110.17529 | 3364 ft | 233 kts | 107° |
| 2026-04-27 02:16 | 19.95266 | 110.19214 | 3259 ft | 229 kts | 93° |
| 2026-04-27 02:16 | 19.95276 | 110.20894 | 3103 ft | 224 kts | 93° |
| 2026-04-27 02:17 | 19.95286 | 110.22511 | 3006 ft | 214 kts | 94° |
| 2026-04-27 02:17 | 19.95293 | 110.24043 | 3013 ft | 202 kts | 94° |
| 2026-04-27 02:17 | 19.95298 | 110.25523 | 3022 ft | 200 kts | 94° |
| 2026-04-27 02:17 | 19.95303 | 110.27005 | 3028 ft | 203 kts | 93° |
| 2026-04-27 02:18 | 19.95309 | 110.28507 | 2885 ft | 202 kts | 92° |
| 2026-04-27 02:18 | 19.95316 | 110.30004 | 2682 ft | 205 kts | 94° |
| 2026-04-27 02:18 | 19.95323 | 110.31493 | 2421 ft | 196 kts | 93° |
| 2026-04-27 02:18 | 19.95330 | 110.32896 | 2190 ft | 178 kts | 93° |
| 2026-04-27 02:19 | 19.95335 | 110.34165 | 1952 ft | 165 kts | 94° |
| 2026-04-27 02:19 | 19.95338 | 110.34946 | 1826 ft | 155 kts | 94° |
| 2026-04-27 02:19 | 19.95342 | 110.36043 | 1640 ft | 143 kts | 94° |
| 2026-04-27 02:19 | 19.95345 | 110.37098 | 1435 ft | 142 kts | 94° |
| 2026-04-27 02:20 | 19.95350 | 110.38483 | 1199 ft | 139 kts | 92° |
| 2026-04-27 02:20 | 19.95351 | 110.39071 | 1110 ft | 139 kts | 90° |
| 2026-04-27 02:20 | 19.95342 | 110.40101 | 930 ft | 137 kts | 93° |
| 2026-04-27 02:20 | 19.95352 | 110.41108 | 767 ft | 138 kts | 92° |
| 2026-04-27 02:21 | 19.95360 | 110.42156 | 581 ft | 140 kts | 93° |
| 2026-04-27 02:21 | 19.95366 | 110.43188 | 418 ft | 140 kts | 91° |
| 2026-04-27 02:21 | 19.95371 | 110.44221 | 245 ft | 140 kts | 91° |
| 2026-04-27 02:21 | 19.95372 | 110.45253 | 84 ft | 139 kts | 91° |
| 2026-04-27 02:22 | 19.95375 | 110.46169 | 67 ft | 96 kts | 90° |
| 2026-04-27 02:22 | 19.95376 | 110.46684 | 59 ft | 45 kts | 90° |
| 2026-04-27 02:22 | 19.95369 | 110.46943 | 63 ft | 21 kts | 104° |
| 2026-04-27 02:22 | 19.95312 | 110.47078 | 62 ft | 20 kts | 116° |
| 2026-04-27 02:23 | 19.95227 | 110.47132 | 57 ft | 16 kts | 206° |
| 2026-04-27 02:23 | 19.95208 | 110.47022 | 61 ft | 16 kts | 271° |
| 2026-04-27 02:23 | 19.95206 | 110.46906 | 61 ft | 16 kts | 269° |
| 2026-04-27 02:23 | 19.95207 | 110.46774 | 61 ft | 23 kts | 271° |
| 2026-04-27 02:24 | 19.95208 | 110.46600 | 60 ft | 24 kts | 269° |
| 2026-04-27 02:24 | 19.95207 | 110.46423 | 60 ft | 24 kts | 270° |
| 2026-04-27 02:24 | 19.95156 | 110.46344 | 54 ft | 14 kts | 184° |
| 2026-04-27 02:24 | 19.95108 | 110.46277 | 56 ft | 12 kts | 228° |
| 2026-04-27 02:25 | 19.95064 | 110.46213 | 57 ft | 11 kts | 266° |
| 2026-04-27 02:25 | 19.95064 | 110.46133 | 59 ft | 11 kts | 269° |
| 2026-04-27 02:25 | 19.95043 | 110.46067 | 51 ft | 9 kts | 201° |
| 2026-04-27 02:25 | 19.94997 | 110.46065 | 55 ft | 0 kts | 180° |